sensor_id;sensor_type;location;lat;lon;timestamp;pressure;altitude;pressure_sealevel;temperature;humidity
69524;BME280;56723;42.694;23.286;2022-10-15T00:01:36;95314.78;;;10.73;79.87
69524;BME280;56723;42.694;23.286;2022-10-15T00:04:03;95321.44;;;10.76;79.98
69524;BME280;56723;42.694;23.286;2022-10-15T00:06:30;95318.66;;;10.77;79.72
69524;BME280;56723;42.694;23.286;2022-10-15T00:08:57;95305.88;;;10.76;79.74
69524;BME280;56723;42.694;23.286;2022-10-15T00:11:24;95307.31;;;10.79;79.66
69524;BME280;56723;42.694;23.286;2022-10-15T00:13:54;95307.31;;;10.79;79.56
69524;BME280;56723;42.694;23.286;2022-10-15T00:16:23;95304.72;;;10.79;79.99
69524;BME280;56723;42.694;23.286;2022-10-15T00:18:50;95307.31;;;10.79;79.97
69524;BME280;56723;42.694;23.286;2022-10-15T00:21:17;95307.31;;;10.79;80.45
69524;BME280;56723;42.694;23.286;2022-10-15T00:23:45;95298.44;;;10.81;80.23
69524;BME280;56723;42.694;23.286;2022-10-15T00:26:16;95301.84;;;10.82;80.60
69524;BME280;56723;42.694;23.286;2022-10-15T00:28:44;95296.50;;;10.83;80.76
69524;BME280;56723;42.694;23.286;2022-10-15T00:31:12;95301.84;;;10.82;80.82
69524;BME280;56723;42.694;23.286;2022-10-15T00:33:39;95299.88;;;10.84;80.89
69524;BME280;56723;42.694;23.286;2022-10-15T00:36:07;95299.88;;;10.84;80.83
69524;BME280;56723;42.694;23.286;2022-10-15T00:38:36;95287.91;;;10.83;80.96
69524;BME280;56723;42.694;23.286;2022-10-15T00:41:03;95295.03;;;10.81;81.26
69524;BME280;56723;42.694;23.286;2022-10-15T00:43:34;95298.59;;;10.80;81.58
69524;BME280;56723;42.694;23.286;2022-10-15T00:46:01;95289.53;;;10.75;81.89
69524;BME280;56723;42.694;23.286;2022-10-15T00:48:28;95282.56;;;10.76;82.35
69524;BME280;56723;42.694;23.286;2022-10-15T00:50:57;95282.56;;;10.76;82.78
69524;BME280;56723;42.694;23.286;2022-10-15T00:53:26;95280.75;;;10.76;83.07
69524;BME280;56723;42.694;23.286;2022-10-15T00:55:53;95279.97;;;10.76;83.41
69524;BME280;56723;42.694;23.286;2022-10-15T00:58:20;95283.34;;;10.76;83.65
69524;BME280;56723;42.694;23.286;2022-10-15T01:00:54;95272.00;;;10.77;83.61
69524;BME280;56723;42.694;23.286;2022-10-15T01:03:21;95272.97;;;10.76;84.07
69524;BME280;56723;42.694;23.286;2022-10-15T01:05:49;95274.59;;;10.77;84.11
69524;BME280;56723;42.694;23.286;2022-10-15T01:08:16;95271.38;;;10.75;84.41
69524;BME280;56723;42.694;23.286;2022-10-15T01:10:47;95281.56;;;10.77;84.61
69524;BME280;56723;42.694;23.286;2022-10-15T01:14:01;95278.97;;;10.77;85.00
69524;BME280;56723;42.694;23.286;2022-10-15T01:16:19;95270.72;;;10.73;85.50
69524;BME280;56723;42.694;23.286;2022-10-15T01:18:52;95274.44;;;10.71;85.89
69524;BME280;56723;42.694;23.286;2022-10-15T01:21:41;95272.00;;;10.69;86.41
69524;BME280;56723;42.694;23.286;2022-10-15T01:24:27;95257.41;;;10.60;86.70
69524;BME280;56723;42.694;23.286;2022-10-15T01:27:32;95275.56;;;10.68;87.02
69524;BME280;56723;42.694;23.286;2022-10-15T01:32:37;95280.09;;;10.66;87.49
69524;BME280;56723;42.694;23.286;2022-10-15T01:35:18;95278.47;;;10.65;87.82
69524;BME280;56723;42.694;23.286;2022-10-15T01:37:54;95277.66;;;10.65;87.52
69524;BME280;56723;42.694;23.286;2022-10-15T01:40:43;95273.28;;;10.65;88.25
69524;BME280;56723;42.694;23.286;2022-10-15T01:43:12;95275.88;;;10.65;88.67
69524;BME280;56723;42.694;23.286;2022-10-15T01:46:08;95277.81;;;10.63;88.84
69524;BME280;56723;42.694;23.286;2022-10-15T01:49:05;95269.09;;;10.64;89.22
69524;BME280;56723;42.694;23.286;2022-10-15T01:51:35;95271.66;;;10.64;89.05
69524;BME280;56723;42.694;23.286;2022-10-15T01:54:04;95271.66;;;10.64;89.05
69524;BME280;56723;42.694;23.286;2022-10-15T01:56:33;95276.03;;;10.64;89.16
69524;BME280;56723;42.694;23.286;2022-10-15T01:59:02;95275.88;;;10.65;89.27
69524;BME280;56723;42.694;23.286;2022-10-15T02:01:30;95274.09;;;10.66;89.25
69524;BME280;56723;42.694;23.286;2022-10-15T02:03:57;95273.13;;;10.67;89.25
69524;BME280;56723;42.694;23.286;2022-10-15T02:06:36;95272.31;;;10.66;88.91
69524;BME280;56723;42.694;23.286;2022-10-15T02:09:26;95270.69;;;10.65;88.79
69524;BME280;56723;42.694;23.286;2022-10-15T02:11:59;95270.38;;;10.68;88.64
69524;BME280;56723;42.694;23.286;2022-10-15T02:14:33;95276.38;;;10.69;88.77
69524;BME280;56723;42.694;23.286;2022-10-15T02:17:04;95272.16;;;10.68;88.70
69524;BME280;56723;42.694;23.286;2022-10-15T02:24:32;95272.31;;;10.66;88.76
69524;BME280;56723;42.694;23.286;2022-10-15T02:27:04;95275.56;;;10.68;88.86
69524;BME280;56723;42.694;23.286;2022-10-15T02:29:32;95276.69;;;10.66;88.61
69524;BME280;56723;42.694;23.286;2022-10-15T02:32:01;95277.00;;;10.63;88.76
69524;BME280;56723;42.694;23.286;2022-10-15T02:34:29;95276.50;;;10.59;89.12
69524;BME280;56723;42.694;23.286;2022-10-15T02:37:00;95284.63;;;10.56;89.56
69524;BME280;56723;42.694;23.286;2022-10-15T02:39:27;95280.41;;;10.55;89.78
69524;BME280;56723;42.694;23.286;2022-10-15T02:41:53;95279.59;;;10.55;89.88
69524;BME280;56723;42.694;23.286;2022-10-15T02:44:20;95279.59;;;10.55;90.07
69524;BME280;56723;42.694;23.286;2022-10-15T02:46:47;95282.03;;;10.56;90.38
69524;BME280;56723;42.694;23.286;2022-10-15T02:49:16;95281.22;;;10.56;90.43
69524;BME280;56723;42.694;23.286;2022-10-15T02:51:43;95275.22;;;10.55;90.20
69524;BME280;56723;42.694;23.286;2022-10-15T02:54:14;95275.38;;;10.54;90.43
69524;BME280;56723;42.694;23.286;2022-10-15T02:56:41;95276.03;;;10.56;90.14
69524;BME280;56723;42.694;23.286;2022-10-15T02:59:08;95277.00;;;10.55;90.49
69524;BME280;56723;42.694;23.286;2022-10-15T03:01:35;95272.78;;;10.54;90.63
69524;BME280;56723;42.694;23.286;2022-10-15T03:04:03;95278.78;;;10.54;90.60
69524;BME280;56723;42.694;23.286;2022-10-15T03:06:31;95279.44;;;10.56;90.41
69524;BME280;56723;42.694;23.286;2022-10-15T03:08:58;95277.00;;;10.55;90.51
69524;BME280;56723;42.694;23.286;2022-10-15T03:11:25;95265.69;;;10.56;90.33
69524;BME280;56723;42.694;23.286;2022-10-15T03:13:52;95272.47;;;10.57;90.43
69524;BME280;56723;42.694;23.286;2022-10-15T03:16:19;95264.72;;;10.57;90.03
69524;BME280;56723;42.694;23.286;2022-10-15T03:18:46;95273.28;;;10.57;90.24
69524;BME280;56723;42.694;23.286;2022-10-15T03:21:14;95273.44;;;10.56;90.10
69524;BME280;56723;42.694;23.286;2022-10-15T03:23:42;95280.41;;;10.55;90.35
69524;BME280;56723;42.694;23.286;2022-10-15T03:26:15;95281.53;;;10.53;90.36
69524;BME280;56723;42.694;23.286;2022-10-15T03:28:43;95281.69;;;10.51;90.50
69524;BME280;56723;42.694;23.286;2022-10-15T03:31:14;95279.41;;;10.48;91.10
69524;BME280;56723;42.694;23.286;2022-10-15T03:33:45;95282.97;;;10.47;91.20
69524;BME280;56723;42.694;23.286;2022-10-15T03:36:13;95279.72;;;10.45;91.13
69524;BME280;56723;42.694;23.286;2022-10-15T03:38:40;95283.28;;;10.44;91.92
69524;BME280;56723;42.694;23.286;2022-10-15T03:41:11;95271.94;;;10.45;92.42
69524;BME280;56723;42.694;23.286;2022-10-15T03:43:39;95282.97;;;10.47;92.12
69524;BME280;56723;42.694;23.286;2022-10-15T03:46:08;95292.53;;;10.47;91.85
69524;BME280;56723;42.694;23.286;2022-10-15T03:48:40;95284.09;;;10.45;92.05
69524;BME280;56723;42.694;23.286;2022-10-15T03:51:09;95288.47;;;10.44;92.09
69524;BME280;56723;42.694;23.286;2022-10-15T03:53:38;95286.84;;;10.43;92.15
69524;BME280;56723;42.694;23.286;2022-10-15T03:56:05;95297.19;;;10.43;92.40
69524;BME280;56723;42.694;23.286;2022-10-15T03:58:35;95294.75;;;10.41;92.62
69524;BME280;56723;42.694;23.286;2022-10-15T04:01:08;95299.13;;;10.41;92.58
69524;BME280;56723;42.694;23.286;2022-10-15T04:03:36;95287.16;;;10.40;92.56
69524;BME280;56723;42.694;23.286;2022-10-15T04:06:03;95297.50;;;10.40;92.96
69524;BME280;56723;42.694;23.286;2022-10-15T04:08:31;95294.75;;;10.41;92.96
69524;BME280;56723;42.694;23.286;2022-10-15T04:10:58;95299.13;;;10.41;92.79
69524;BME280;56723;42.694;23.286;2022-10-15T04:13:25;95297.50;;;10.40;92.77
69524;BME280;56723;42.694;23.286;2022-10-15T04:15:53;95298.50;;;10.39;93.01
69524;BME280;56723;42.694;23.286;2022-10-15T04:18:21;95301.09;;;10.39;92.83
69524;BME280;56723;42.694;23.286;2022-10-15T04:20:52;95306.28;;;10.39;92.85
69524;BME280;56723;42.694;23.286;2022-10-15T04:23:21;95304.66;;;10.38;92.79
69524;BME280;56723;42.694;23.286;2022-10-15T04:26:06;95301.25;;;10.37;92.96
69524;BME280;56723;42.694;23.286;2022-10-15T04:28:34;95298.66;;;10.37;92.93
69524;BME280;56723;42.694;23.286;2022-10-15T04:31:02;95295.25;;;10.37;93.07
69524;BME280;56723;42.694;23.286;2022-10-15T04:33:29;95296.22;;;10.36;92.50
69524;BME280;56723;42.694;23.286;2022-10-15T04:35:59;95299.78;;;10.35;92.83
69524;BME280;56723;42.694;23.286;2022-10-15T04:38:42;95300.75;;;10.34;93.01
69524;BME280;56723;42.694;23.286;2022-10-15T04:41:09;95301.72;;;10.33;93.15
69524;BME280;56723;42.694;23.286;2022-10-15T04:44:00;95310.13;;;10.35;92.75
69524;BME280;56723;42.694;23.286;2022-10-15T04:46:29;95311.09;;;10.34;92.92
69524;BME280;56723;42.694;23.286;2022-10-15T04:49:00;95307.69;;;10.33;93.09
69524;BME280;56723;42.694;23.286;2022-10-15T04:51:27;95317.09;;;10.34;93.23
69524;BME280;56723;42.694;23.286;2022-10-15T04:54:17;95318.56;;;10.37;92.92
69524;BME280;56723;42.694;23.286;2022-10-15T04:56:56;95320.19;;;10.38;92.98
69524;BME280;56723;42.694;23.286;2022-10-15T04:59:23;95316.63;;;10.39;93.24
69524;BME280;56723;42.694;23.286;2022-10-15T05:02:09;95317.25;;;10.41;93.01
69524;BME280;56723;42.694;23.286;2022-10-15T05:04:36;95326.66;;;10.42;92.84
69524;BME280;56723;42.694;23.286;2022-10-15T05:07:03;95325.69;;;10.43;92.46
69524;BME280;56723;42.694;23.286;2022-10-15T05:09:30;95324.56;;;10.46;92.52
69524;BME280;56723;42.694;23.286;2022-10-15T05:12:02;95325.22;;;10.48;92.78
69524;BME280;56723;42.694;23.286;2022-10-15T05:14:29;95330.25;;;10.49;92.28
69524;BME280;56723;42.694;23.286;2022-10-15T05:17:10;95321.53;;;10.50;92.16
69524;BME280;56723;42.694;23.286;2022-10-15T05:19:39;95327.34;;;10.52;91.73
69524;BME280;56723;42.694;23.286;2022-10-15T05:22:12;95334.16;;;10.53;91.84
69524;BME280;56723;42.694;23.286;2022-10-15T05:24:46;95332.22;;;10.55;91.74
69524;BME280;56723;42.694;23.286;2022-10-15T05:27:23;95328.34;;;10.59;91.59
69524;BME280;56723;42.694;23.286;2022-10-15T05:29:50;95340.31;;;10.60;90.83
69524;BME280;56723;42.694;23.286;2022-10-15T05:32:17;95345.50;;;10.60;90.98
69524;BME280;56723;42.694;23.286;2022-10-15T05:34:43;95342.75;;;10.62;90.23
69524;BME280;56723;42.694;23.286;2022-10-15T05:37:13;95350.38;;;10.63;89.95
69524;BME280;56723;42.694;23.286;2022-10-15T05:39:41;95355.25;;;10.66;89.66
69524;BME280;56723;42.694;23.286;2022-10-15T05:42:09;95351.69;;;10.67;89.65
69524;BME280;56723;42.694;23.286;2022-10-15T05:44:39;95352.34;;;10.69;89.41
69524;BME280;56723;42.694;23.286;2022-10-15T05:47:06;95362.41;;;10.72;88.71
69524;BME280;56723;42.694;23.286;2022-10-15T05:49:37;95369.53;;;10.70;88.52
69524;BME280;56723;42.694;23.286;2022-10-15T05:52:11;95360.94;;;10.70;88.62
69524;BME280;56723;42.694;23.286;2022-10-15T05:55:16;95362.41;;;10.72;88.19
69524;BME280;56723;42.694;23.286;2022-10-15T05:57:42;95363.06;;;10.74;88.04
69524;BME280;56723;42.694;23.286;2022-10-15T06:00:09;95361.44;;;10.73;87.82
69524;BME280;56723;42.694;23.286;2022-10-15T06:02:39;95361.09;;;10.76;87.04
69524;BME280;56723;42.694;23.286;2022-10-15T06:05:06;95364.34;;;10.79;86.85
69524;BME280;56723;42.694;23.286;2022-10-15T06:07:33;95366.78;;;10.80;86.76
69524;BME280;56723;42.694;23.286;2022-10-15T06:10:03;95367.44;;;10.82;86.94
69524;BME280;56723;42.694;23.286;2022-10-15T06:12:32;95371.34;;;10.86;86.78
69524;BME280;56723;42.694;23.286;2022-10-15T06:14:59;95369.09;;;10.91;86.56
69524;BME280;56723;42.694;23.286;2022-10-15T06:17:25;95361.63;;;10.96;86.30
69524;BME280;56723;42.694;23.286;2022-10-15T06:19:52;95371.38;;;11.02;86.02
69524;BME280;56723;42.694;23.286;2022-10-15T06:22:19;95370.75;;;11.08;86.10
69524;BME280;56723;42.694;23.286;2022-10-15T06:24:46;95369.28;;;11.14;85.49
69524;BME280;56723;42.694;23.286;2022-10-15T06:27:13;95377.41;;;11.19;85.31
69524;BME280;56723;42.694;23.286;2022-10-15T06:29:39;95374.34;;;11.24;85.36
69524;BME280;56723;42.694;23.286;2022-10-15T06:32:09;95380.84;;;11.28;84.83
69524;BME280;56723;42.694;23.286;2022-10-15T06:34:41;95382.31;;;11.30;85.12
69524;BME280;56723;42.694;23.286;2022-10-15T06:37:08;95389.75;;;11.33;84.46
69524;BME280;56723;42.694;23.286;2022-10-15T06:39:34;95390.25;;;11.37;84.40
69524;BME280;56723;42.694;23.286;2022-10-15T06:42:01;95396.75;;;11.41;84.06
69524;BME280;56723;42.694;23.286;2022-10-15T06:44:36;95388.63;;;11.44;83.91
69524;BME280;56723;42.694;23.286;2022-10-15T06:47:03;95390.59;;;11.50;83.99
69524;BME280;56723;42.694;23.286;2022-10-15T06:49:30;95388.16;;;11.57;83.68
69524;BME280;56723;42.694;23.286;2022-10-15T06:51:57;95389.13;;;11.64;83.19
69524;BME280;56723;42.694;23.286;2022-10-15T06:54:29;95392.06;;;11.77;82.17
69524;BME280;56723;42.694;23.286;2022-10-15T06:56:55;95396.91;;;11.88;80.74
69524;BME280;56723;42.694;23.286;2022-10-15T06:59:22;95396.94;;;11.96;80.80
69524;BME280;56723;42.694;23.286;2022-10-15T07:01:49;95395.59;;;12.08;80.21
69524;BME280;56723;42.694;23.286;2022-10-15T07:04:16;95397.88;;;12.11;80.34
69524;BME280;56723;42.694;23.286;2022-10-15T07:06:42;95392.34;;;12.23;80.12
69524;BME280;56723;42.694;23.286;2022-10-15T07:09:09;95399.13;;;12.32;78.64
69524;BME280;56723;42.694;23.286;2022-10-15T07:11:36;95397.84;;;12.28;78.65
69524;BME280;56723;42.694;23.286;2022-10-15T07:14:03;95402.06;;;12.29;78.28
69524;BME280;56723;42.694;23.286;2022-10-15T07:16:29;95408.56;;;12.33;78.59
69524;BME280;56723;42.694;23.286;2022-10-15T07:18:56;95413.22;;;12.45;78.23
69524;BME280;56723;42.694;23.286;2022-10-15T07:21:23;95411.56;;;12.61;77.38
69524;BME280;56723;42.694;23.286;2022-10-15T07:23:50;95407.13;;;12.69;77.11
69524;BME280;56723;42.694;23.286;2022-10-15T07:26:17;95406.50;;;12.67;76.33
69524;BME280;56723;42.694;23.286;2022-10-15T07:28:43;95402.91;;;12.68;76.33
69524;BME280;56723;42.694;23.286;2022-10-15T07:31:10;95408.59;;;12.72;75.78
69524;BME280;56723;42.694;23.286;2022-10-15T07:33:37;95397.22;;;12.73;75.53
69524;BME280;56723;42.694;23.286;2022-10-15T07:36:05;95397.03;;;12.74;75.43
69524;BME280;56723;42.694;23.286;2022-10-15T07:38:33;95410.53;;;12.70;75.43
69524;BME280;56723;42.694;23.286;2022-10-15T07:41:01;95402.41;;;12.73;75.31
69524;BME280;56723;42.694;23.286;2022-10-15T07:43:30;95403.88;;;12.75;74.29
69524;BME280;56723;42.694;23.286;2022-10-15T07:45:57;95406.13;;;12.78;73.81
69524;BME280;56723;42.694;23.286;2022-10-15T07:48:24;95413.56;;;12.81;73.13
69524;BME280;56723;42.694;23.286;2022-10-15T07:50:54;95412.31;;;12.77;73.23
69524;BME280;56723;42.694;23.286;2022-10-15T07:53:21;95406.75;;;12.80;72.75
69524;BME280;56723;42.694;23.286;2022-10-15T07:55:57;95409.41;;;12.72;72.61
69524;BME280;56723;42.694;23.286;2022-10-15T07:58:27;95415.19;;;12.82;72.13
69524;BME280;56723;42.694;23.286;2022-10-15T08:01:00;95408.19;;;12.91;71.95
69524;BME280;56723;42.694;23.286;2022-10-15T08:03:28;95413.47;;;13.06;71.43
69524;BME280;56723;42.694;23.286;2022-10-15T08:05:58;95417.78;;;13.30;70.25
69524;BME280;56723;42.694;23.286;2022-10-15T08:08:26;95413.59;;;13.43;68.89
69524;BME280;56723;42.694;23.286;2022-10-15T08:10:53;95394.66;;;13.35;67.92
69524;BME280;56723;42.694;23.286;2022-10-15T08:13:20;95410.25;;;13.58;66.75
69524;BME280;56723;42.694;23.286;2022-10-15T08:15:49;95408.75;;;13.63;66.51
69524;BME280;56723;42.694;23.286;2022-10-15T08:18:15;95407.53;;;13.74;66.53
69524;BME280;56723;42.694;23.286;2022-10-15T08:20:42;95402.00;;;13.92;65.15
69524;BME280;56723;42.694;23.286;2022-10-15T08:23:13;95402.31;;;14.11;64.21
69524;BME280;56723;42.694;23.286;2022-10-15T08:25:40;95394.06;;;14.23;62.85
69524;BME280;56723;42.694;23.286;2022-10-15T08:28:10;95401.09;;;14.37;62.67
69524;BME280;56723;42.694;23.286;2022-10-15T08:30:37;95394.16;;;14.29;61.87
69524;BME280;56723;42.694;23.286;2022-10-15T08:33:10;95393.63;;;14.34;61.76
69524;BME280;56723;42.694;23.286;2022-10-15T08:35:41;95395.06;;;14.21;61.22
69524;BME280;56723;42.694;23.286;2022-10-15T08:38:10;95395.78;;;14.30;62.00
69524;BME280;56723;42.694;23.286;2022-10-15T08:40:50;95387.56;;;14.41;61.94
69524;BME280;56723;42.694;23.286;2022-10-15T08:43:21;95382.97;;;14.58;60.58
69524;BME280;56723;42.694;23.286;2022-10-15T08:45:49;95381.19;;;14.59;60.83
69524;BME280;56723;42.694;23.286;2022-10-15T08:48:20;95383.28;;;14.84;59.69
69524;BME280;56723;42.694;23.286;2022-10-15T08:50:54;95380.56;;;15.07;57.72
69524;BME280;56723;42.694;23.286;2022-10-15T08:53:22;95382.66;;;15.33;57.07
69524;BME280;56723;42.694;23.286;2022-10-15T08:55:54;95379.16;;;15.47;55.88
69524;BME280;56723;42.694;23.286;2022-10-15T09:01:08;95381.56;;;15.64;54.66
69524;BME280;56723;42.694;23.286;2022-10-15T09:06:27;95383.91;;;15.80;53.44
69524;BME280;56723;42.694;23.286;2022-10-15T09:14:18;95390.16;;;15.57;54.42
69524;BME280;56723;42.694;23.286;2022-10-15T09:16:48;95382.41;;;15.49;54.71
69524;BME280;56723;42.694;23.286;2022-10-15T09:19:16;95392.84;;;15.49;53.04
69524;BME280;56723;42.694;23.286;2022-10-15T09:21:44;95379.31;;;15.61;53.18
69524;BME280;56723;42.694;23.286;2022-10-15T09:24:14;95379.31;;;15.82;53.00
69524;BME280;56723;42.694;23.286;2022-10-15T09:31:42;95374.91;;;16.66;47.59
69524;BME280;56723;42.694;23.286;2022-10-15T09:34:22;95368.88;;;16.72;46.98
69524;BME280;56723;42.694;23.286;2022-10-15T09:36:57;95375.00;;;16.92;46.99
69524;BME280;56723;42.694;23.286;2022-10-15T09:39:31;95376.25;;;17.10;46.00
69524;BME280;56723;42.694;23.286;2022-10-15T09:44:47;95368.28;;;17.31;45.78
69524;BME280;56723;42.694;23.286;2022-10-15T09:47:24;95368.72;;;17.41;45.10
69524;BME280;56723;42.694;23.286;2022-10-15T09:49:58;95371.53;;;17.53;44.33
69524;BME280;56723;42.694;23.286;2022-10-15T09:57:37;95360.34;;;17.98;42.82
69524;BME280;56723;42.694;23.286;2022-10-15T10:00:09;95372.41;;;18.19;41.84
69524;BME280;56723;42.694;23.286;2022-10-15T10:02:38;95372.81;;;18.36;41.60
69524;BME280;56723;42.694;23.286;2022-10-15T10:07:44;95372.16;;;18.41;40.91
69524;BME280;56723;42.694;23.286;2022-10-15T10:10:27;95369.13;;;18.50;40.66
69524;BME280;56723;42.694;23.286;2022-10-15T10:12:56;95371.72;;;18.57;40.91
69524;BME280;56723;42.694;23.286;2022-10-15T10:15:32;95371.53;;;18.65;40.80
69524;BME280;56723;42.694;23.286;2022-10-15T10:18:00;95371.53;;;18.65;40.52
69524;BME280;56723;42.694;23.286;2022-10-15T10:20:30;95362.25;;;18.69;40.54
69524;BME280;56723;42.694;23.286;2022-10-15T10:22:58;95362.66;;;18.73;39.57
69524;BME280;56723;42.694;23.286;2022-10-15T10:28:36;95355.13;;;18.89;39.49
69524;BME280;56723;42.694;23.286;2022-10-15T10:33:26;95353.84;;;19.05;38.47
69524;BME280;56723;42.694;23.286;2022-10-15T10:35:53;95358.69;;;19.01;38.28
69524;BME280;56723;42.694;23.286;2022-10-15T10:38:24;95352.94;;;19.18;38.37
69524;BME280;56723;42.694;23.286;2022-10-15T10:40:55;95349.09;;;19.20;37.56
69524;BME280;56723;42.694;23.286;2022-10-15T10:43:25;95350.44;;;19.36;36.73
69524;BME280;56723;42.694;23.286;2022-10-15T10:48:42;95342.00;;;19.65;36.41
69524;BME280;56723;42.694;23.286;2022-10-15T10:53:54;95334.25;;;19.70;38.89
69524;BME280;56723;42.694;23.286;2022-10-15T10:56:44;95335.97;;;19.58;38.64
69524;BME280;56723;42.694;23.286;2022-10-15T11:01:36;95329.44;;;19.92;37.93
69524;BME280;56723;42.694;23.286;2022-10-15T11:04:03;95327.38;;;20.19;37.25
69524;BME280;56723;42.694;23.286;2022-10-15T11:20:05;95327.78;;;19.03;39.49
69524;BME280;56723;42.694;23.286;2022-10-15T11:25:47;95342.31;;;18.35;39.55
69524;BME280;56723;42.694;23.286;2022-10-15T11:28:25;95338.53;;;17.98;40.14
69524;BME280;56723;42.694;23.286;2022-10-15T11:30:57;95339.34;;;17.98;40.72
69524;BME280;56723;42.694;23.286;2022-10-15T11:49:24;95323.66;;;16.91;41.94
69524;BME280;56723;42.694;23.286;2022-10-15T11:52:01;95329.53;;;17.00;42.35
69524;BME280;56723;42.694;23.286;2022-10-15T11:54:46;95323.28;;;17.01;41.47
69524;BME280;56723;42.694;23.286;2022-10-15T11:57:15;95321.41;;;16.82;42.50
69524;BME280;56723;42.694;23.286;2022-10-15T11:59:46;95327.13;;;17.12;42.78
69524;BME280;56723;42.694;23.286;2022-10-15T12:02:20;95326.16;;;17.33;42.36
69524;BME280;56723;42.694;23.286;2022-10-15T12:04:53;95330.81;;;17.50;41.16
69524;BME280;56723;42.694;23.286;2022-10-15T12:07:23;95335.09;;;17.71;41.22
69524;BME280;56723;42.694;23.286;2022-10-15T12:09:52;95322.41;;;17.75;40.28
69524;BME280;56723;42.694;23.286;2022-10-15T12:17:58;95332.47;;;17.84;40.73
69524;BME280;56723;42.694;23.286;2022-10-15T12:20:27;95335.31;;;17.83;41.00
69524;BME280;56723;42.694;23.286;2022-10-15T12:22:59;95331.88;;;17.62;40.93
69524;BME280;56723;42.694;23.286;2022-10-15T12:28:00;95334.72;;;16.93;41.90
69524;BME280;56723;42.694;23.286;2022-10-15T12:30:28;95336.66;;;16.65;42.66
69524;BME280;56723;42.694;23.286;2022-10-15T12:32:57;95333.31;;;16.50;43.42
69524;BME280;56723;42.694;23.286;2022-10-15T12:35:31;95328.84;;;16.44;43.59
69524;BME280;56723;42.694;23.286;2022-10-15T12:38:09;95330.00;;;16.35;43.93
69524;BME280;56723;42.694;23.286;2022-10-15T12:40:36;95324.31;;;16.24;44.08
69524;BME280;56723;42.694;23.286;2022-10-15T12:43:11;95327.09;;;16.16;44.43
69524;BME280;56723;42.694;23.286;2022-10-15T12:45:39;95325.47;;;16.15;44.88
69524;BME280;56723;42.694;23.286;2022-10-15T12:50:34;95328.88;;;16.16;44.75
69524;BME280;56723;42.694;23.286;2022-10-15T12:53:04;95325.06;;;16.12;44.87
69524;BME280;56723;42.694;23.286;2022-10-15T12:55:39;95332.78;;;16.26;44.67
69524;BME280;56723;42.694;23.286;2022-10-15T13:00:51;95325.25;;;16.92;43.70
69524;BME280;56723;42.694;23.286;2022-10-15T13:03:26;95326.75;;;17.21;42.86
69524;BME280;56723;42.694;23.286;2022-10-15T13:06:11;95319.94;;;17.40;42.88
69524;BME280;56723;42.694;23.286;2022-10-15T13:08:41;95320.34;;;17.63;42.79
69524;BME280;56723;42.694;23.286;2022-10-15T13:11:17;95323.41;;;17.87;42.29
69524;BME280;56723;42.694;23.286;2022-10-15T13:13:44;95320.00;;;17.80;41.87
69524;BME280;56723;42.694;23.286;2022-10-15T13:16:12;95317.78;;;17.77;42.02
69524;BME280;56723;42.694;23.286;2022-10-15T13:18:40;95307.88;;;17.98;42.19
69524;BME280;56723;42.694;23.286;2022-10-15T13:21:07;95307.09;;;17.98;41.91
69524;BME280;56723;42.694;23.286;2022-10-15T13:23:43;95305.03;;;18.13;41.80
69524;BME280;56723;42.694;23.286;2022-10-15T13:28:40;95315.44;;;18.40;40.74
69524;BME280;56723;42.694;23.286;2022-10-15T13:31:12;95303.84;;;17.96;41.39
69524;BME280;56723;42.694;23.286;2022-10-15T13:33:40;95306.28;;;17.78;41.88
69524;BME280;56723;42.694;23.286;2022-10-15T13:36:08;95321.16;;;17.38;42.84
69524;BME280;56723;42.694;23.286;2022-10-15T13:38:36;95323.94;;;17.16;43.29
69524;BME280;56723;42.694;23.286;2022-10-15T13:41:04;95322.25;;;16.95;43.49
69524;BME280;56723;42.694;23.286;2022-10-15T13:43:30;95319.88;;;17.14;43.29
69524;BME280;56723;42.694;23.286;2022-10-15T13:45:58;95317.31;;;17.40;42.49
69524;BME280;56723;42.694;23.286;2022-10-15T13:48:26;95313.31;;;17.64;42.17
69524;BME280;56723;42.694;23.286;2022-10-15T13:50:53;95313.53;;;17.89;41.62
69524;BME280;56723;42.694;23.286;2022-10-15T13:53:32;95306.28;;;17.64;42.15
69524;BME280;56723;42.694;23.286;2022-10-15T13:56:19;95305.25;;;17.52;41.92
69524;BME280;56723;42.694;23.286;2022-10-15T13:58:47;95311.06;;;17.35;42.16
69524;BME280;56723;42.694;23.286;2022-10-15T14:01:15;95320.31;;;17.24;42.29
69524;BME280;56723;42.694;23.286;2022-10-15T14:06:17;95307.88;;;16.72;43.58
69524;BME280;56723;42.694;23.286;2022-10-15T14:08:45;95307.75;;;16.86;43.08
69524;BME280;56723;42.694;23.286;2022-10-15T14:11:12;95308.91;;;16.77;43.83
69524;BME280;56723;42.694;23.286;2022-10-15T14:13:43;95310.91;;;16.69;43.54
69524;BME280;56723;42.694;23.286;2022-10-15T14:16:14;95312.00;;;16.53;44.23
69524;BME280;56723;42.694;23.286;2022-10-15T14:18:44;95318.03;;;16.47;44.22
69524;BME280;56723;42.694;23.286;2022-10-15T14:21:16;95304.16;;;16.18;44.91
69524;BME280;56723;42.694;23.286;2022-10-15T14:23:44;95316.56;;;16.03;45.48
69524;BME280;56723;42.694;23.286;2022-10-15T14:26:11;95305.22;;;15.89;45.85
69524;BME280;56723;42.694;23.286;2022-10-15T14:28:39;95296.25;;;15.77;46.13
69524;BME280;56723;42.694;23.286;2022-10-15T14:31:07;95297.41;;;15.68;46.42
69524;BME280;56723;42.694;23.286;2022-10-15T14:38:30;95303.72;;;16.84;43.86
69524;BME280;56723;42.694;23.286;2022-10-15T14:41:01;95306.56;;;17.09;42.98
69524;BME280;56723;42.694;23.286;2022-10-15T14:43:33;95310.25;;;17.34;42.37
69524;BME280;56723;42.694;23.286;2022-10-15T14:46:04;95309.06;;;17.56;41.91
69524;BME280;56723;42.694;23.286;2022-10-15T14:48:33;95311.13;;;17.68;41.65
69524;BME280;56723;42.694;23.286;2022-10-15T14:51:05;95319.19;;;17.79;41.69